Time;durP1;ratioP1;P1;durP2;ratioP2;P2;SDS_P1;SDS_P2;PMS_P1;PMS_P2;Temp;Humidity;BMP_temperature;BMP_pressure;BME280_temperature;BME280_humidity;BME280_pressure;Samples;Min_cycle;Max_cycle;Signal;HPM_P1;HPM_P2
2022/08/13 00:03:42;;;;;;;2.05;1.40;;;;;;;19.95;34.80;95768.28;10344235;28;96864;-61
2022/08/13 00:09:07;;;;;;;1.58;1.30;;;;;;;19.85;35.81;95775.09;10339973;28;97574;-61
2022/08/13 00:14:22;;;;;;;2.60;1.20;;;;;;;19.70;35.47;95775.41;10345995;28;97159;-63
2022/08/13 00:19:42;;;;;;;1.65;1.30;;;;;;;19.50;36.00;95771.06;10336884;28;96806;-61
2022/08/13 00:24:51;;;;;;;1.55;1.23;;;;;;;19.24;36.10;95764.94;10332273;28;97810;-61
2022/08/13 00:29:56;;;;;;;2.17;1.30;;;;;;;19.17;35.89;95764.16;10344119;28;97122;-61
2022/08/13 00:35:02;;;;;;;2.42;1.48;;;;;;;19.13;36.85;95754.22;10332379;28;97753;-61
2022/08/13 00:40:12;;;;;;;2.28;1.55;;;;;;;18.97;36.99;95772.22;10343425;28;97092;-61
2022/08/13 00:45:34;;;;;;;2.47;1.27;;;;;;;18.94;37.21;95766.53;10330004;28;96926;-62
2022/08/13 00:50:39;;;;;;;2.95;1.48;;;;;;;18.77;37.02;95751.09;10334658;28;97193;-61
2022/08/13 00:55:48;;;;;;;3.05;1.50;;;;;;;18.68;37.83;95762.97;10331183;28;99125;-61
2022/08/13 01:00:56;;;;;;;2.42;1.40;;;;;;;18.56;37.89;95754.88;10329751;28;98539;-61
2022/08/13 01:06:00;;;;;;;2.08;1.40;;;;;;;18.48;38.48;95763.88;10339814;28;96754;-63
2022/08/13 01:11:07;;;;;;;1.63;1.30;;;;;;;18.50;37.73;95761.81;10334560;28;98839;-61
2022/08/13 01:16:19;;;;;;;2.60;1.38;;;;;;;18.35;38.31;95761.25;10328071;28;98171;-61
2022/08/13 01:21:33;;;;;;;1.65;1.30;;;;;;;18.15;39.19;95760.50;10333736;28;96761;-61
2022/08/13 01:26:43;;;;;;;2.05;1.55;;;;;;;17.93;39.80;95760.75;10335262;28;97073;-62
2022/08/13 01:31:51;;;;;;;2.22;1.40;;;;;;;17.80;39.38;95760.72;10340231;28;98014;-61
2022/08/13 01:36:55;;;;;;;;;;;;;;;17.72;39.22;95762.56;10336885;28;96849;-61
2022/08/13 01:42:00;;;;;;;2.15;1.20;;;;;;;17.56;39.75;95769.06;10336906;28;97131;-62
2022/08/13 01:52:47;;;;;;;3.22;1.42;;;;;;;17.49;40.10;95760.34;10337582;28;97836;-61
2022/08/13 01:57:53;;;;;;;4.25;1.80;;;;;;;17.44;39.96;95761.94;10339184;28;99132;-61
2022/08/13 02:03:01;;;;;;;3.33;1.27;;;;;;;17.45;39.99;95768.84;10334495;28;97854;-63
2022/08/13 02:08:06;;;;;;;2.58;1.45;;;;;;;17.28;40.73;95773.69;10340567;28;96873;-62
2022/08/13 02:13:11;;;;;;;2.10;1.50;;;;;;;17.17;40.95;95773.28;10338229;28;96842;-64
2022/08/13 02:18:21;;;;;;;1.60;1.27;;;;;;;17.02;41.89;95769.19;10347090;28;96875;-61
2022/08/13 02:23:30;;;;;;;2.75;1.35;;;;;;;16.94;41.39;95778.91;10341669;28;96805;-61
2022/08/13 02:28:57;;;;;;;3.50;1.50;;;;;;;16.85;42.56;95774.00;10338724;28;97064;-61
2022/08/13 02:34:01;;;;;;;5.95;1.80;;;;;;;16.70;42.38;95772.31;10348521;28;97068;-60
2022/08/13 02:39:10;;;;;;;2.47;1.40;;;;;;;16.60;43.05;95783.22;10340000;28;98564;-61
2022/08/13 02:44:14;;;;;;;2.10;1.50;;;;;;;16.56;43.25;95782.00;10339712;28;97065;-61
2022/08/13 02:49:21;;;;;;;2.67;1.33;;;;;;;16.44;43.33;95775.66;10341617;28;96978;-61
2022/08/13 02:54:34;;;;;;;2.87;1.30;;;;;;;16.33;44.29;95773.56;10327396;28;97827;-61
2022/08/13 02:59:38;;;;;;;2.20;1.65;;;;;;;16.23;44.49;95776.56;10335863;28;97088;-61
2022/08/13 03:05:01;;;;;;;2.90;1.33;;;;;;;16.12;44.53;95775.28;10338632;28;96865;-62
2022/08/13 03:10:12;;;;;;;5.10;1.75;;;;;;;16.09;44.95;95765.13;10343860;28;96828;-61
2022/08/13 03:15:18;;;;;;;2.70;1.52;;;;;;;15.74;45.36;95778.28;10337874;28;96931;-63
2022/08/13 03:20:23;;;;;;;2.72;1.77;;;;;;;15.60;45.72;95771.25;10340201;28;96844;-61
2022/08/13 03:25:29;;;;;;;4.03;1.60;;;;;;;15.62;46.49;95770.06;10338115;28;97357;-61
2022/08/13 03:30:34;;;;;;;2.90;1.60;;;;;;;15.57;46.55;95776.91;10333372;28;96806;-61
2022/08/13 03:35:38;;;;;;;3.08;1.40;;;;;;;15.46;45.71;95765.03;10333615;28;97880;-61
2022/08/13 03:41:02;;;;;;;5.68;1.75;;;;;;;15.56;46.31;95777.88;10340366;28;98676;-62
2022/08/13 03:46:08;;;;;;;2.75;1.50;;;;;;;15.43;46.71;95782.03;10334305;28;97192;-61
2022/08/13 03:51:16;;;;;;;2.70;1.42;;;;;;;15.31;47.32;95781.72;10330932;28;100380;-62
2022/08/13 03:56:26;;;;;;;4.80;1.60;;;;;;;15.21;47.31;95780.41;10340712;28;98021;-61
2022/08/13 04:01:29;;;;;;;3.25;1.70;;;;;;;15.20;47.21;95792.75;10333966;28;97281;-61
2022/08/13 04:06:32;;;;;;;4.68;1.67;;;;;;;15.10;47.70;95793.06;10334614;28;97053;-61
2022/08/13 04:11:36;;;;;;;2.83;1.40;;;;;;;15.11;47.05;95793.88;10336831;28;96779;-62
2022/08/13 04:16:46;;;;;;;2.90;1.60;;;;;;;14.93;47.21;95786.41;10334144;28;99149;-63
2022/08/13 04:21:49;;;;;;;3.22;1.58;;;;;;;14.89;47.20;95779.91;10334335;28;96972;-63
2022/08/13 04:26:55;;;;;;;2.35;1.30;;;;;;;14.95;46.94;95789.66;10334542;28;98324;-61
2022/08/13 04:31:59;;;;;;;4.22;1.38;;;;;;;15.01;47.19;95783.66;10332640;28;99217;-61
2022/08/13 04:37:02;;;;;;;1.95;1.60;;;;;;;14.99;47.17;95785.69;10334550;28;97078;-61
2022/08/13 04:42:08;;;;;;;1.98;1.40;;;;;;;14.99;46.82;95790.09;10335052;28;98373;-61
2022/08/13 04:47:31;;;;;;;2.97;1.50;;;;;;;14.91;47.31;95798.94;10332994;28;97189;-61
2022/08/13 04:52:34;;;;;;;4.97;1.85;;;;;;;14.89;47.96;95803.56;10334615;28;96878;-61
2022/08/13 04:57:41;;;;;;;4.47;1.77;;;;;;;14.74;48.41;95791.25;10333991;28;96856;-62
2022/08/13 05:03:09;;;;;;;2.97;1.65;;;;;;;14.90;48.38;95805.19;10331680;28;98420;-61
2022/08/13 05:08:15;;;;;;;3.67;1.38;;;;;;;14.98;48.49;95799.81;10333970;28;97573;-61
2022/08/13 05:13:27;;;;;;;3.92;1.60;;;;;;;15.01;48.06;95799.44;10334457;28;96911;-63
2022/08/13 05:18:33;;;;;;;2.60;1.58;;;;;;;15.08;47.46;95805.59;10333303;28;98614;-61
2022/08/13 05:23:37;;;;;;;2.40;1.15;;;;;;;15.18;46.60;95801.84;10332004;28;96806;-61
2022/08/13 05:29:04;;;;;;;2.00;1.20;;;;;;;15.23;44.97;95794.19;10331175;28;97047;-61
2022/08/13 05:34:07;;;;;;;3.45;1.38;;;;;;;15.42;46.00;95800.66;10331782;28;98561;-62
2022/08/13 05:39:11;;;;;;;1.60;1.17;;;;;;;15.53;45.54;95796.69;10335123;28;97130;-61
2022/08/13 05:44:15;;;;;;;2.20;1.40;;;;;;;15.73;46.77;95796.91;10333708;28;96890;-61
2022/08/13 05:49:25;;;;;;;3.53;1.40;;;;;;;15.95;47.54;95801.13;10333801;28;96802;-61
2022/08/13 05:54:44;;;;;;;2.05;1.17;;;;;;;16.06;45.93;95802.41;10328394;28;98075;-62
2022/08/13 06:05:30;;;;;;;2.90;1.75;;;;;;;16.06;44.31;95778.69;10329822;28;98014;-61
2022/08/13 06:10:49;;;;;;;2.25;1.30;;;;;;;16.28;43.15;95804.97;10336033;28;97325;-61
2022/08/13 06:15:58;;;;;;;3.00;1.40;;;;;;;16.36;44.93;95796.91;10340141;28;97083;-60
2022/08/13 06:21:18;;;;;;;2.08;1.40;;;;;;;16.43;43.64;95787.19;10338835;28;96737;-61
2022/08/13 06:26:41;;;;;;;2.90;1.25;;;;;;;16.69;44.18;95810.22;10339993;28;96889;-62
2022/08/13 06:31:51;;;;;;;2.30;1.60;;;;;;;16.94;44.34;95807.94;10339266;28;97435;-61
2022/08/13 06:36:53;;;;;;;3.35;1.75;;;;;;;17.07;43.55;95806.34;10338246;28;97187;-61
2022/08/13 06:42:02;;;;;;;3.13;1.70;;;;;;;17.25;43.97;95803.97;10339020;28;96818;-61
2022/08/13 06:47:07;;;;;;;3.05;1.63;;;;;;;17.44;44.50;95794.44;10337882;28;96773;-61
2022/08/13 06:52:16;;;;;;;2.17;1.50;;;;;;;17.68;45.07;95800.97;10342473;28;96846;-61
2022/08/13 06:57:22;;;;;;;1.65;1.30;;;;;;;17.83;45.23;95811.31;10337827;28;97039;-62
2022/08/13 07:02:36;;;;;;;5.93;1.75;;;;;;;17.96;45.73;95813.19;10338274;28;96754;-61
2022/08/13 07:07:43;;;;;;;3.78;1.70;;;;;;;18.15;46.01;95816.00;10336681;28;96748;-61
2022/08/13 07:12:46;;;;;;;2.17;1.58;;;;;;;18.29;46.68;95814.94;10330237;28;96961;-62
2022/08/13 07:17:50;;;;;;;2.03;1.38;;;;;;;18.39;46.75;95814.53;10330038;28;97073;-61
2022/08/13 07:22:58;;;;;;;3.05;1.30;;;;;;;18.53;47.06;95817.97;10336223;28;96849;-61
2022/08/13 07:28:23;;;;;;;2.50;1.40;;;;;;;18.64;46.34;95812.03;10337675;28;96861;-61
2022/08/13 07:33:51;;;;;;;;;;;;;;;18.87;45.84;95815.00;10335358;28;97076;-61
2022/08/13 07:38:57;;;;;;;2.17;1.65;;;;;;;18.98;46.23;95820.66;10327819;28;97957;-61
2022/08/13 07:44:02;;;;;;;3.05;2.40;;;;;;;19.17;45.74;95819.75;10335179;28;97153;-60
2022/08/13 07:49:09;;;;;;;6.30;4.18;;;;;;;19.42;46.52;95817.19;10336615;28;98026;-62
2022/08/13 07:54:12;;;;;;;4.55;2.17;;;;;;;19.56;46.39;95817.91;10335941;28;97462;-61
2022/08/13 07:59:17;;;;;;;2.10;1.65;;;;;;;19.63;45.79;95821.31;10339933;28;97367;-61
2022/08/13 08:04:30;;;;;;;3.58;1.40;;;;;;;19.70;45.79;95820.47;10336445;28;97092;-61
2022/08/13 08:09:34;;;;;;;1.75;1.42;;;;;;;19.83;45.60;95820.38;10335406;28;96889;-62
2022/08/13 08:14:44;;;;;;;2.47;1.92;;;;;;;19.94;45.62;95814.38;10335788;28;96785;-61
2022/08/13 08:19:59;;;;;;;5.60;2.47;;;;;;;20.14;44.19;95818.69;10332015;28;97139;-63
2022/08/13 08:25:24;;;;;;;3.90;2.35;;;;;;;20.26;43.87;95809.00;10335432;28;96814;-61
2022/08/13 08:30:28;;;;;;;5.28;4.03;;;;;;;20.42;44.41;95823.53;10333622;28;97737;-60
2022/08/13 08:35:33;;;;;;;;;;;;;;;20.64;43.33;95823.91;10335083;28;96854;-60
2022/08/13 08:46:22;;;;;;;2.20;1.40;;;;;;;21.07;42.85;95812.41;10330760;28;98882;-61
2022/08/13 08:51:28;;;;;;;2.53;1.50;;;;;;;21.27;43.25;95812.13;10336114;28;97455;-61
2022/08/13 08:56:34;;;;;;;2.42;1.50;;;;;;;21.36;43.70;95809.16;10335797;28;96798;-62
2022/08/13 09:01:37;;;;;;;2.83;1.48;;;;;;;21.51;43.44;95818.31;10332320;28;97691;-61
2022/08/13 09:07:02;;;;;;;2.80;1.88;;;;;;;21.57;43.17;95807.81;10332417;28;96926;-61
2022/08/13 09:12:08;;;;;;;3.42;1.45;;;;;;;21.59;42.95;95806.56;10333033;28;96856;-61
2022/08/13 09:17:13;;;;;;;9.55;7.50;;;;;;;21.90;42.62;95810.00;10330096;28;97197;-62
2022/08/13 09:22:22;;;;;;;1.80;1.40;;;;;;;21.91;42.26;95814.28;10332529;28;96803;-61
2022/08/13 09:27:30;;;;;;;2.35;1.10;;;;;;;22.00;42.05;95806.78;10336464;28;97351;-62
2022/08/13 09:32:56;;;;;;;2.80;1.60;;;;;;;22.15;41.75;95801.00;10330870;28;96982;-59
2022/08/13 09:38:02;;;;;;;1.88;1.52;;;;;;;22.18;41.23;95800.53;10341123;28;96881;-62
2022/08/13 09:43:09;;;;;;;1.75;1.35;;;;;;;22.21;41.26;95795.56;10333415;28;98478;-62
2022/08/13 09:48:15;;;;;;;2.95;1.10;;;;;;;22.31;41.14;95794.16;10339755;28;97100;-61
2022/08/13 09:53:40;;;;;;;1.85;1.15;;;;;;;22.55;40.35;95795.78;10347975;28;98015;-62
2022/08/13 09:58:43;;;;;;;1.70;1.40;;;;;;;22.69;39.83;95790.22;10340848;28;96921;-61
2022/08/13 10:03:50;;;;;;;3.47;1.30;;;;;;;22.80;39.34;95789.34;10337115;28;97219;-61
2022/08/13 10:09:01;;;;;;;2.63;1.15;;;;;;;22.93;39.19;95785.63;10338082;28;96763;-61
2022/08/13 10:14:04;;;;;;;1.83;1.38;;;;;;;22.94;38.84;95776.56;10340369;28;97720;-61
2022/08/13 10:19:08;;;;;;;2.45;1.45;;;;;;;23.04;38.87;95768.78;10335774;28;97991;-62
2022/08/13 10:24:15;;;;;;;3.15;1.20;;;;;;;23.37;38.29;95780.59;10339994;28;97052;-62
2022/08/13 10:29:17;;;;;;;;;;;;;;;23.58;38.32;95760.41;10342612;28;96794;-62
2022/08/13 10:34:42;;;;;;;1.58;1.10;;;;;;;23.71;37.88;95761.97;10339750;28;97237;-62
2022/08/13 10:40:01;;;;;;;1.55;1.20;;;;;;;23.65;37.40;95755.75;10338972;28;97015;-61
2022/08/13 10:45:05;;;;;;;2.85;1.20;;;;;;;23.83;37.08;95757.38;10339021;28;98277;-62
2022/08/13 10:50:08;;;;;;;1.77;1.35;;;;;;;24.01;36.39;95748.28;10333769;28;98048;-62
2022/08/13 10:55:14;;;;;;;2.90;1.30;;;;;;;24.26;36.42;95749.72;10337593;28;96973;-62
2022/08/13 11:00:19;;;;;;;3.25;1.30;;;;;;;24.40;36.08;95750.19;10338269;28;97022;-61
2022/08/13 11:05:27;;;;;;;1.73;1.20;;;;;;;24.43;36.13;95742.47;10336492;28;99281;-63
2022/08/13 11:10:32;;;;;;;2.10;1.52;;;;;;;24.53;35.70;95738.34;10337858;28;96853;-61
2022/08/13 11:15:35;;;;;;;2.88;1.33;;;;;;;24.56;35.79;95733.31;10343758;28;96826;-62
2022/08/13 11:21:03;;;;;;;5.60;2.70;;;;;;;24.64;35.57;95732.06;10336294;28;98154;-60
2022/08/13 11:26:27;;;;;;;7.07;4.38;;;;;;;24.80;34.70;95744.53;10334384;28;97558;-62
2022/08/13 11:31:43;;;;;;;2.15;1.58;;;;;;;24.92;35.00;95736.41;10336020;28;97819;-62
2022/08/13 11:37:03;;;;;;;2.83;1.40;;;;;;;25.00;33.77;95737.84;10337662;28;99772;-61
2022/08/13 11:42:12;;;;;;;3.70;3.25;;;;;;;25.19;33.96;95728.41;10336500;28;97052;-61
2022/08/13 11:47:15;;;;;;;3.92;1.50;;;;;;;25.36;33.92;95719.47;10332093;28;96878;-62
2022/08/13 11:52:27;;;;;;;3.78;1.27;;;;;;;25.55;33.32;95715.38;10334852;28;97099;-62
2022/08/13 11:57:43;;;;;;;2.83;1.10;;;;;;;25.70;32.74;95709.31;10336252;28;97288;-63
2022/08/13 12:02:49;;;;;;;3.10;1.30;;;;;;;25.90;32.31;95708.69;10336596;28;98018;-62
2022/08/13 12:07:57;;;;;;;2.53;1.20;;;;;;;26.14;31.99;95697.59;10335010;28;97261;-61
2022/08/13 12:13:04;;;;;;;1.98;1.20;;;;;;;26.34;31.50;95697.69;10334458;28;97028;-62
2022/08/13 12:18:12;;;;;;;1.90;1.23;;;;;;;26.44;31.13;95690.78;10335648;28;97272;-61
2022/08/13 12:23:17;;;;;;;1.48;1.05;;;;;;;26.36;31.31;95690.22;10335660;28;98522;-64
2022/08/13 12:28:30;;;;;;;4.93;1.05;;;;;;;26.39;30.53;95693.44;10336174;28;97542;-61
2022/08/13 12:33:35;;;;;;;4.05;1.30;;;;;;;26.41;30.75;95691.31;10331854;28;97309;-61
2022/08/13 12:38:42;;;;;;;3.13;1.10;;;;;;;26.42;30.50;95687.56;10334262;28;97143;-61
2022/08/13 12:44:02;;;;;;;2.00;1.00;;;;;;;26.69;30.16;95682.84;10327310;28;96930;-62
2022/08/13 12:49:25;;;;;;;1.52;1.20;;;;;;;26.87;29.84;95683.44;10335109;28;98058;-62
2022/08/13 12:54:28;;;;;;;2.73;1.10;;;;;;;27.10;29.62;95680.25;10337455;28;97774;-61
2022/08/13 12:59:52;;;;;;;2.30;1.20;;;;;;;27.28;28.99;95673.59;10332121;28;97340;-61
2022/08/13 13:05:06;;;;;;;1.80;1.10;;;;;;;27.43;29.06;95677.34;10334009;28;99021;-62
2022/08/13 13:10:19;;;;;;;1.73;1.15;;;;;;;27.47;28.87;95676.53;10330304;28;96948;-62
2022/08/13 13:15:25;;;;;;;2.22;1.00;;;;;;;27.75;28.54;95676.25;10334583;28;96924;-62
2022/08/13 13:20:51;;;;;;;1.10;0.90;;;;;;;28.06;27.85;95666.25;10339239;28;97260;-61
2022/08/13 13:25:56;;;;;;;1.63;1.30;;;;;;;28.17;27.65;95667.06;10340550;28;96733;-62
2022/08/13 13:31:00;;;;;;;1.10;1.00;;;;;;;28.19;27.01;95665.69;10338243;28;96931;-61
2022/08/13 13:36:18;;;;;;;1.20;1.00;;;;;;;28.34;27.25;95661.38;10340517;28;97059;-62
2022/08/13 13:41:21;;;;;;;5.05;1.35;;;;;;;28.56;26.69;95666.38;10341240;28;96823;-63
2022/08/13 13:46:46;;;;;;;1.63;0.95;;;;;;;28.97;25.91;95653.53;10338036;28;96675;-62
2022/08/13 13:51:52;;;;;;;1.15;0.93;;;;;;;29.17;25.44;95651.78;10340499;28;97293;-63
2022/08/13 13:56:54;;;;;;;;;;;;;;;28.85;26.51;95644.19;10339387;28;97744;-62
2022/08/13 14:01:59;;;;;;;3.28;1.02;;;;;;;29.18;25.38;95637.28;10340024;28;96925;-62
2022/08/13 14:07:05;;;;;;;2.10;1.00;;;;;;;29.11;25.18;95636.78;10335680;28;100529;-62
2022/08/13 14:12:30;;;;;;;1.27;1.10;;;;;;;29.42;24.71;95636.53;10339888;28;98028;-62
2022/08/13 14:17:54;;;;;;;2.40;1.25;;;;;;;30.13;24.11;95631.53;10338455;28;99300;-61
2022/08/13 14:23:17;;;;;;;1.60;0.98;;;;;;;30.10;24.37;95631.03;10339813;28;96749;-63
2022/08/13 14:28:23;;;;;;;2.47;1.02;;;;;;;30.76;23.97;95625.16;10339605;28;96931;-62
2022/08/13 14:33:30;;;;;;;1.23;1.00;;;;;;;32.14;22.74;95622.03;10340220;28;96958;-62
2022/08/13 14:38:53;;;;;;;3.83;1.10;;;;;;;33.88;20.92;95616.47;10335495;28;96934;-62
2022/08/13 14:43:57;;;;;;;1.63;1.00;;;;;;;35.10;19.51;95606.69;10338651;28;97524;-61
2022/08/13 14:49:06;;;;;;;2.28;1.02;;;;;;;35.37;19.73;95606.69;10342760;28;97005;-62
2022/08/13 14:54:08;;;;;;;2.70;0.93;;;;;;;35.69;18.91;95603.41;10337720;28;97473;-64
2022/08/13 14:59:14;;;;;;;1.10;0.90;;;;;;;36.80;18.02;95600.81;10337313;28;97139;-63
2022/08/13 15:04:25;;;;;;;0.85;0.85;;;;;;;36.87;17.97;95611.13;10337628;28;96760;-63
2022/08/13 15:09:33;;;;;;;3.47;1.23;;;;;;;37.19;17.26;95606.88;10337012;28;96931;-62
2022/08/13 15:14:53;;;;;;;2.30;1.20;;;;;;;37.21;17.00;95595.69;10337636;28;96871;-62
2022/08/13 15:19:58;;;;;;;1.52;1.00;;;;;;;38.23;16.30;95588.63;10337138;28;96785;-62
2022/08/13 15:25:01;;;;;;;3.10;0.80;;;;;;;38.82;16.43;95586.50;10337847;28;97247;-62
2022/08/13 15:30:08;;;;;;;2.33;1.10;;;;;;;39.11;15.81;95579.09;10339006;28;96687;-63
2022/08/13 15:35:14;;;;;;;2.17;0.80;;;;;;;39.03;15.77;95565.25;10336806;28;96825;-62
2022/08/13 15:40:21;;;;;;;1.98;0.90;;;;;;;39.30;15.83;95562.88;10336850;28;97128;-62
2022/08/13 15:45:36;;;;;;;1.23;1.00;;;;;;;40.33;14.45;95565.81;10337043;28;96894;-62
2022/08/13 15:50:45;;;;;;;1.70;0.80;;;;;;;41.00;14.74;95560.25;10337039;28;96810;-63
2022/08/13 15:55:49;;;;;;;0.73;0.73;;;;;;;41.36;14.09;95552.69;10333750;28;97204;-65
2022/08/13 16:01:00;;;;;;;1.48;0.90;;;;;;;41.91;13.79;95555.25;10336971;28;96744;-63
2022/08/13 16:06:30;;;;;;;3.55;1.27;;;;;;;42.39;13.43;95549.31;10326632;28;97025;-63
2022/08/13 16:11:37;;;;;;;2.67;1.00;;;;;;;42.04;13.42;95550.34;10336279;28;96992;-62
2022/08/13 16:16:52;;;;;;;1.90;1.00;;;;;;;42.10;13.65;95546.13;10336713;28;96795;-63
2022/08/13 16:21:58;;;;;;;1.83;0.80;;;;;;;41.86;13.58;95533.59;10336513;28;97256;-62
2022/08/13 16:27:05;;;;;;;1.73;0.98;;;;;;;41.94;13.17;95532.56;10335353;28;97174;-64
2022/08/13 16:32:11;;;;;;;2.15;0.90;;;;;;;41.94;12.96;95527.09;10330724;28;97153;-64
2022/08/13 16:37:32;;;;;;;1.10;0.82;;;;;;;42.19;13.25;95521.94;10332128;28;97380;-63
2022/08/13 16:42:58;;;;;;;1.27;0.70;;;;;;;42.82;12.76;95524.38;10331626;28;97260;-63
2022/08/13 16:48:07;;;;;;;1.65;1.00;;;;;;;42.57;12.97;95514.63;10334910;28;98009;-63
2022/08/13 16:53:12;;;;;;;0.85;0.73;;;;;;;42.63;12.79;95511.56;10334443;28;97427;-63
2022/08/13 16:58:36;;;;;;;2.25;0.80;;;;;;;42.05;13.32;95512.72;10330881;28;96973;-62
2022/08/13 17:09:13;;;;;;;2.05;1.15;;;;;;;41.09;13.65;95518.94;10334789;28;96945;-64
2022/08/13 17:14:20;;;;;;;1.25;1.05;;;;;;;41.16;13.44;95521.81;10334024;28;99082;-64
2022/08/13 17:19:34;;;;;;;1.85;0.90;;;;;;;41.43;13.18;95528.19;10332955;28;96982;-62
2022/08/13 17:24:58;;;;;;;1.35;0.70;;;;;;;40.51;13.96;95531.47;10329154;28;96876;-63
2022/08/13 17:30:04;;;;;;;3.00;1.05;;;;;;;40.07;14.07;95520.69;10330742;28;96832;-63
2022/08/13 17:35:12;;;;;;;1.27;1.10;;;;;;;39.64;14.48;95540.72;10331167;28;96935;-63
2022/08/13 17:40:21;;;;;;;3.33;1.10;;;;;;;39.24;14.54;95547.88;10337556;28;97169;-63
2022/08/13 17:45:26;;;;;;;1.60;1.40;;;;;;;38.30;15.19;95541.66;10332090;28;98030;-63
2022/08/13 17:50:33;;;;;;;1.77;1.20;;;;;;;36.52;16.00;95536.00;10333070;28;97342;-62
2022/08/13 17:55:54;;;;;;;3.10;1.38;;;;;;;34.79;17.39;95533.59;10331941;28;97960;-62
2022/08/13 18:01:00;;;;;;;2.92;1.00;;;;;;;33.59;18.73;95547.34;10323333;28;96875;-62
2022/08/13 18:06:18;;;;;;;2.65;1.20;;;;;;;32.28;20.13;95541.78;10333260;28;97552;-62
2022/08/13 18:11:33;;;;;;;1.95;1.25;;;;;;;31.58;21.21;95540.19;10345963;28;98203;-62
2022/08/13 18:16:44;;;;;;;3.05;1.10;;;;;;;30.71;22.15;95528.91;10332089;28;97196;-62
2022/08/13 18:22:07;;;;;;;3.83;2.10;;;;;;;30.20;23.09;95551.19;10336662;28;96980;-62
2022/08/13 18:27:11;;;;;;;2.38;1.10;;;;;;;29.62;23.58;95539.47;10339665;28;97006;-61
2022/08/13 18:32:25;;;;;;;1.77;1.20;;;;;;;28.88;24.26;95542.28;10335538;28;97064;-62
2022/08/13 18:37:29;;;;;;;3.20;1.15;;;;;;;28.37;24.57;95548.00;10339119;28;97474;-61
2022/08/13 18:42:42;;;;;;;1.88;1.35;;;;;;;27.86;25.04;95523.00;10338391;28;96801;-63
2022/08/13 18:47:45;;;;;;;3.70;1.67;;;;;;;27.86;25.40;95555.19;10339007;28;97322;-62
2022/08/13 18:52:48;;;;;;;2.20;1.70;;;;;;;27.62;25.55;95555.00;10336808;28;98339;-64
2022/08/13 18:58:12;;;;;;;6.20;1.20;;;;;;;27.28;25.84;95550.25;10336158;28;97255;-63
2022/08/13 19:03:16;;;;;;;2.85;1.45;;;;;;;26.75;26.60;95550.47;10338714;28;96708;-63
2022/08/13 19:08:21;;;;;;;6.22;1.60;;;;;;;26.58;26.82;95555.28;10343808;28;96900;-61
2022/08/13 19:13:26;;;;;;;4.07;1.33;;;;;;;26.45;27.00;95563.84;10335356;28;96890;-62
2022/08/13 19:18:31;;;;;;;4.68;3.33;;;;;;;26.34;26.92;95573.72;10338159;28;97087;-61
2022/08/13 19:23:33;;;;;;;2.83;2.53;;;;;;;26.24;26.77;95584.38;10334793;28;97277;-61
2022/08/13 19:28:41;;;;;;;4.28;2.70;;;;;;;26.09;26.69;95583.25;10337193;28;96929;-63
2022/08/13 19:34:00;;;;;;;3.53;3.15;;;;;;;25.80;27.43;95582.84;10335973;28;96757;-62
2022/08/13 19:39:06;;;;;;;5.47;3.72;;;;;;;25.48;27.60;95594.44;10338879;28;98714;-62
2022/08/13 19:44:32;;;;;;;30.55;23.40;;;;;;;25.17;28.38;95604.91;10333406;28;98852;-61
2022/08/13 19:49:37;;;;;;;9.88;6.35;;;;;;;25.04;28.31;95594.63;10330356;28;97471;-65
2022/08/13 19:54:57;;;;;;;11.02;8.43;;;;;;;24.83;29.49;95610.47;10333722;28;96864;-61
2022/08/13 20:00:10;;;;;;;14.05;12.00;;;;;;;24.60;29.77;95616.13;10331470;28;97033;-61
2022/08/13 20:05:18;;;;;;;7.35;5.40;;;;;;;24.35;29.88;95613.97;10337265;28;96815;-64
2022/08/13 20:10:26;;;;;;;9.75;7.40;;;;;;;24.03;30.41;95614.66;10328842;28;96961;-62
2022/08/13 20:15:32;;;;;;;6.55;3.92;;;;;;;23.77;31.33;95608.19;10328288;28;97013;-62
2022/08/13 20:20:40;;;;;;;6.50;5.13;;;;;;;23.65;30.64;95614.41;10331785;28;97072;-63
2022/08/13 20:25:52;;;;;;;6.60;5.53;;;;;;;23.54;31.04;95616.13;10331401;28;96869;-62
2022/08/13 20:31:10;;;;;;;8.23;7.40;;;;;;;23.37;30.60;95618.81;10331147;28;99250;-62
2022/08/13 20:36:14;;;;;;;8.60;7.70;;;;;;;23.16;30.63;95616.88;10335693;28;96785;-62
2022/08/13 20:41:19;;;;;;;7.10;5.75;;;;;;;22.82;32.06;95614.16;10335343;28;97543;-61
2022/08/13 20:46:24;;;;;;;8.90;6.50;;;;;;;22.59;32.45;95621.22;10333050;28;96814;-62
2022/08/13 20:51:29;;;;;;;8.07;6.65;;;;;;;22.45;32.05;95617.22;10334346;28;96914;-62
2022/08/13 20:56:48;;;;;;;8.70;6.50;;;;;;;22.29;31.95;95623.31;10329233;28;96957;-62
2022/08/13 21:02:00;;;;;;;8.68;7.40;;;;;;;22.14;32.60;95619.28;10330103;28;97005;-61
2022/08/13 21:07:04;;;;;;;9.45;6.85;;;;;;;22.06;32.61;95622.34;10328533;28;97808;-62
2022/08/13 21:12:10;;;;;;;9.52;7.25;;;;;;;21.95;33.21;95620.50;10329371;28;97014;-62
2022/08/13 21:17:14;;;;;;;10.27;6.53;;;;;;;21.73;33.39;95628.25;10325013;28;97062;-63
2022/08/13 21:22:20;;;;;;;8.10;7.28;;;;;;;21.64;33.73;95633.13;10330023;28;98696;-62
2022/08/13 21:27:31;;;;;;;10.30;7.10;;;;;;;21.55;34.52;95637.16;10327045;28;97067;-61
2022/08/13 21:33:00;;;;;;;8.35;7.47;;;;;;;21.20;35.08;95640.59;10327402;28;96965;-61
2022/08/13 21:38:04;;;;;;;10.30;8.50;;;;;;;21.04;34.53;95637.56;10330247;28;96768;-63
2022/08/13 21:43:13;;;;;;;9.32;7.68;;;;;;;20.99;34.62;95642.75;10340399;28;96939;-62
2022/08/13 21:48:22;;;;;;;9.10;7.28;;;;;;;20.97;34.92;95636.88;10339994;28;97151;-61
2022/08/13 21:53:25;;;;;;;7.93;7.13;;;;;;;20.73;35.78;95634.13;10340903;28;96906;-62
2022/08/13 21:58:47;;;;;;;8.20;7.28;;;;;;;20.64;35.45;95638.13;10339015;28;97509;-62
2022/08/13 22:03:54;;;;;;;8.40;6.18;;;;;;;20.48;36.42;95639.59;10339065;28;96972;-61
2022/08/13 22:09:05;;;;;;;6.55;5.28;;;;;;;20.37;36.08;95643.81;10340271;28;97218;-62
2022/08/13 22:14:12;;;;;;;6.97;5.40;;;;;;;20.24;36.42;95649.28;10338485;28;97287;-62
2022/08/13 22:19:16;;;;;;;7.28;4.28;;;;;;;19.98;36.16;95656.50;10340731;28;97020;-62
2022/08/13 22:24:21;;;;;;;3.25;2.30;;;;;;;20.16;35.62;95662.81;10341874;28;96850;-62
2022/08/13 22:34:49;;;;;;;3.15;1.85;;;;;;;20.07;35.04;95648.25;10339059;28;96787;-62
2022/08/13 22:39:54;;;;;;;3.13;2.33;;;;;;;19.95;35.75;95646.34;10339169;28;97051;-62
2022/08/13 22:45:00;;;;;;;4.18;2.33;;;;;;;19.78;35.77;95645.25;10333501;28;97136;-62
2022/08/13 22:50:06;;;;;;;3.55;2.30;;;;;;;19.63;36.65;95643.00;10334580;28;97784;-61
2022/08/13 22:55:14;;;;;;;5.32;3.10;;;;;;;19.51;36.68;95648.19;10338183;28;97287;-61
2022/08/13 23:00:18;;;;;;;5.47;2.90;;;;;;;19.35;38.25;95646.09;10338053;28;96929;-61
2022/08/13 23:05:23;;;;;;;4.93;3.05;;;;;;;19.19;38.40;95648.28;10334374;28;96687;-61
2022/08/13 23:10:27;;;;;;;4.25;2.70;;;;;;;19.06;37.95;95646.53;10336923;28;96758;-61
2022/08/13 23:15:32;;;;;;;2.75;2.30;;;;;;;19.03;38.42;95638.19;10337485;28;97025;-61
2022/08/13 23:20:38;;;;;;;1.88;1.30;;;;;;;18.90;37.68;95648.88;10338343;28;97757;-61
2022/08/13 23:25:44;;;;;;;2.17;1.58;;;;;;;18.90;37.62;95648.88;10340244;28;96849;-62
2022/08/13 23:30:50;;;;;;;2.92;2.00;;;;;;;18.90;37.76;95627.69;10337186;28;97127;-61
2022/08/13 23:35:56;;;;;;;2.72;1.50;;;;;;;18.76;38.85;95638.38;10331251;28;97081;-63
2022/08/13 23:41:00;;;;;;;2.30;1.33;;;;;;;18.60;38.93;95623.81;10336310;28;99386;-62
2022/08/13 23:46:03;;;;;;;1.48;1.05;;;;;;;18.54;38.54;95618.56;10337380;28;96800;-62
2022/08/13 23:51:08;;;;;;;1.65;1.30;;;;;;;18.34;39.65;95598.31;10336547;28;97151;-61
2022/08/13 23:56:11;;;;;;;3.53;1.60;;;;;;;18.20;39.90;95594.94;10337027;28;96959;-61
